Main page
METAR-TAF:

METAR-TAF

Airports :

Cherif Al Idrissi Airport

Al Hoceima, Morocco

latitude: 35-11N, longitude: 003-51W, elevation: 27 m

Current weather observation

The report was made 16 minutes ago, at 21:00 UTC
Wind 4 kt from the South
Temperature 11°C
Humidity 100%
Pressure 1025 hPa
Visibility: 8000 m

METAR: GMTA 102100Z 18004KT 8000 NSC 11/11 Q1025 NOSIG

Time: 22:16 (21:16 UTC)

Forecast

The report was made 4 hours and 16 minutes ago, at 17:00 UTC
Forecast valid from 10 at 18 UTC to 11 at 24 UTC
Wind 2 kt from variable directions
Visibility 10 km or more
Scattered clouds at a height of 1000 ft
Probability 30%
from 10 at 23 UTC to 11 at 05 UTC
Visibility: 2000 m
mist

TAF: GMTA 101700Z 1018/1124 VRB02KT 9999 SCT010 PROB30 1023/1105 2000 BR

Weather observations and forecasts of more than 4000 airports (METAR and TAF reports).

The available stations are represented by yellow and red dots on the map.

Hover mouse over dot to see the name of the station.

Then click to see weather observations and forecasts.

To change the map : click on the green buttons with a black cross to zoom in, on the green button with a dash to zoom out, or on the green arrows for adjacent maps.


METAR-TAF: